createdAt,value
2023-04-21T00:01:55.354Z,44.28
2023-04-21T00:04:22.673Z,47.05
2023-04-21T00:06:50.679Z,45.05
2023-04-21T00:09:18.481Z,44.78
2023-04-21T00:11:45.958Z,44.45
2023-04-21T00:14:13.030Z,47.15
2023-04-21T00:16:40.203Z,43.67
2023-04-21T00:19:07.550Z,44.40
2023-04-21T00:21:35.294Z,44.00
2023-04-21T00:24:02.462Z,41.47
2023-04-21T00:26:29.539Z,42.95
2023-04-21T00:28:56.589Z,42.50
2023-04-21T00:31:23.696Z,45.78
2023-04-21T00:33:50.751Z,45.70
2023-04-21T00:36:17.825Z,45.20
2023-04-21T00:38:44.943Z,45.20
2023-04-21T00:41:11.982Z,45.90
2023-04-21T00:43:39.076Z,45.10
2023-04-21T00:46:06.136Z,45.92
2023-04-21T00:48:33.143Z,43.45
2023-04-21T00:51:00.227Z,44.17
2023-04-21T00:53:27.279Z,45.00
2023-04-21T00:55:54.350Z,45.33
2023-04-21T00:58:21.441Z,44.28
2023-04-21T01:00:48.857Z,42.25
2023-04-21T01:03:16.754Z,43.40
2023-04-21T01:05:43.943Z,44.92
2023-04-21T01:08:10.986Z,44.78
2023-04-21T01:10:38.125Z,45.63
2023-04-21T01:13:05.225Z,45.22
2023-04-21T01:15:32.249Z,45.30
2023-04-21T01:17:59.306Z,46.80
2023-04-21T01:20:26.580Z,46.30
2023-04-21T01:22:53.622Z,45.03
2023-04-21T01:25:22.761Z,47.30
2023-04-21T01:27:49.887Z,45.90
2023-04-21T01:30:16.951Z,48.50
2023-04-21T01:32:44.099Z,49.67
2023-04-21T01:35:11.168Z,52.75
2023-04-21T01:37:38.233Z,51.13
2023-04-21T01:40:06.350Z,52.40
2023-04-21T01:42:33.472Z,48.72
2023-04-21T01:45:00.579Z,47.15
2023-04-21T01:47:27.706Z,46.53
2023-04-21T01:49:54.768Z,46.85
2023-04-21T01:52:22.032Z,47.38
2023-04-21T01:54:49.152Z,48.42
2023-04-21T01:57:16.522Z,50.65
2023-04-21T01:59:43.843Z,51.90
2023-04-21T02:02:10.966Z,51.00
2023-04-21T02:04:38.190Z,49.67
2023-04-21T02:07:05.297Z,49.28
2023-04-21T02:09:32.578Z,49.22
2023-04-21T02:12:00.351Z,46.63
2023-04-21T02:14:27.502Z,46.55
2023-04-21T02:16:56.129Z,48.25
2023-04-21T02:19:23.387Z,46.97
2023-04-21T02:21:50.529Z,47.70
2023-04-21T02:24:17.673Z,47.65
2023-04-21T02:26:44.756Z,47.47
2023-04-21T02:29:11.807Z,48.03
2023-04-21T02:31:53.859Z,47.45
2023-04-21T02:34:26.119Z,47.47
2023-04-21T02:36:53.681Z,46.60
2023-04-21T02:39:21.016Z,46.72
2023-04-21T02:41:48.213Z,47.58
2023-04-21T02:44:15.262Z,46.38
2023-04-21T02:46:42.381Z,45.30
2023-04-21T02:49:09.781Z,43.90
2023-04-21T02:51:37.028Z,43.47
2023-04-21T02:54:04.125Z,43.03
2023-04-21T02:56:31.996Z,43.08
2023-04-21T02:58:59.085Z,46.50
2023-04-21T03:01:26.194Z,45.80
2023-04-21T03:03:53.412Z,44.25
2023-04-21T03:06:20.474Z,44.83
2023-04-21T03:08:47.537Z,44.05
2023-04-21T03:11:14.633Z,46.28
2023-04-21T03:13:41.731Z,44.58
2023-04-21T03:16:08.846Z,46.95
2023-04-21T03:18:36.387Z,45.30
2023-04-21T03:21:03.552Z,46.22
2023-04-21T03:23:30.615Z,48.53
2023-04-21T03:25:57.710Z,47.30
2023-04-21T03:28:24.874Z,47.22
2023-04-21T03:30:51.977Z,47.35
2023-04-21T03:33:19.081Z,47.42
2023-04-21T03:35:46.259Z,47.20
2023-04-21T03:38:13.321Z,47.05
2023-04-21T03:40:40.390Z,47.03
2023-04-21T03:43:07.407Z,47.20
2023-04-21T03:45:36.109Z,47.00
2023-04-21T03:48:03.719Z,44.50
2023-04-21T03:50:30.930Z,46.70
2023-04-21T03:52:58.058Z,45.95
2023-04-21T03:55:25.210Z,45.90
2023-04-21T03:57:52.293Z,45.35
2023-04-21T04:00:19.457Z,46.22
2023-04-21T04:02:46.621Z,45.75
2023-04-21T04:05:13.843Z,46.75
2023-04-21T04:07:41.052Z,46.45
2023-04-21T04:10:08.132Z,45.40
2023-04-21T04:12:35.478Z,47.28
2023-04-21T04:15:02.834Z,45.95
2023-04-21T04:17:29.965Z,46.38
2023-04-21T04:19:57.014Z,47.33
2023-04-21T04:22:24.134Z,46.35
2023-04-21T04:24:51.318Z,45.20
2023-04-21T04:27:20.309Z,44.90
2023-04-21T04:29:49.287Z,45.03
2023-04-21T04:32:16.318Z,45.30
2023-04-21T04:34:43.444Z,45.05
2023-04-21T04:37:11.037Z,46.50
2023-04-21T04:39:38.169Z,46.58
2023-04-21T04:42:09.469Z,46.35
2023-04-21T04:44:36.923Z,44.97
2023-04-21T04:47:04.190Z,46.80
2023-04-21T04:49:31.335Z,45.22
2023-04-21T04:51:59.779Z,46.60
2023-04-21T04:54:28.964Z,43.85
2023-04-21T04:56:57.562Z,40.72
2023-04-21T04:59:24.630Z,40.30
2023-04-21T05:01:52.476Z,39.92
2023-04-21T05:04:20.284Z,40.30
2023-04-21T05:06:47.985Z,41.17
2023-04-21T05:09:16.240Z,40.85
2023-04-21T05:11:43.387Z,42.33
2023-04-21T05:14:10.458Z,40.95
2023-04-21T05:16:37.677Z,41.15
2023-04-21T05:19:04.838Z,39.85
2023-04-21T05:21:33.339Z,41.85
2023-04-21T05:24:01.039Z,39.75
2023-04-21T05:26:28.552Z,38.78
2023-04-21T05:28:58.882Z,37.92
2023-04-21T05:31:25.996Z,37.88
2023-04-21T05:33:53.187Z,37.90
2023-04-21T05:36:20.444Z,37.55
2023-04-21T05:38:47.814Z,37.78
2023-04-21T05:41:14.864Z,38.70
2023-04-21T05:43:41.922Z,43.53
2023-04-21T05:46:09.877Z,45.85
2023-04-21T05:48:36.957Z,44.35
2023-04-21T05:51:11.197Z,46.50
2023-04-21T05:53:38.772Z,46.13
2023-04-21T05:56:06.462Z,44.88
2023-04-21T05:58:34.343Z,45.00
2023-04-21T06:01:01.467Z,43.72
2023-04-21T06:03:28.749Z,43.40
2023-04-21T06:05:56.136Z,43.47
2023-04-21T06:08:23.461Z,43.05
2023-04-21T06:10:50.543Z,42.63
2023-04-21T06:13:17.562Z,43.03
2023-04-21T06:15:44.778Z,41.25
2023-04-21T06:18:11.925Z,41.75
2023-04-21T06:20:40.855Z,42.45
2023-04-21T06:23:09.475Z,42.03
2023-04-21T06:25:36.480Z,41.70
2023-04-21T06:28:03.626Z,41.47
2023-04-21T06:30:30.860Z,41.25
2023-04-21T06:32:57.969Z,41.55
2023-04-21T06:35:25.032Z,40.75
2023-04-21T06:37:52.160Z,40.55
2023-04-21T06:40:19.208Z,39.65
2023-04-21T06:42:46.324Z,38.97
2023-04-21T06:45:13.485Z,38.60
2023-04-21T06:47:40.626Z,37.55
2023-04-21T06:50:08.829Z,37.70
2023-04-21T06:52:35.905Z,38.53
2023-04-21T06:55:02.992Z,36.15
2023-04-21T06:57:30.100Z,37.90
2023-04-21T06:59:57.197Z,38.58
2023-04-21T07:02:24.419Z,36.88
2023-04-21T07:04:51.769Z,37.38
2023-04-21T07:07:18.828Z,37.08
2023-04-21T07:09:48.163Z,35.92
2023-04-21T07:12:15.183Z,36.67
2023-04-21T07:14:42.181Z,36.55
2023-04-21T07:17:09.336Z,34.53
2023-04-21T07:19:37.036Z,34.70
2023-04-21T07:22:04.139Z,34.22
2023-04-21T07:24:31.947Z,35.40
2023-04-21T07:26:59.036Z,34.72
2023-04-21T07:29:26.153Z,34.72
2023-04-21T07:31:54.572Z,34.05
2023-04-21T07:34:21.646Z,32.30
2023-04-21T07:36:48.816Z,32.97
2023-04-21T07:39:16.052Z,32.60
2023-04-21T07:41:43.089Z,34.67
2023-04-21T07:44:10.315Z,33.92
2023-04-21T07:46:37.490Z,33.55
2023-04-21T07:49:07.154Z,34.53
2023-04-21T07:51:34.369Z,33.50
2023-04-21T07:54:01.603Z,34.42
2023-04-21T07:56:28.876Z,34.47
2023-04-21T07:58:55.977Z,33.65
2023-04-21T08:01:23.774Z,32.85
2023-04-21T08:03:51.456Z,33.30
2023-04-21T08:06:18.664Z,31.40
2023-04-21T08:08:45.797Z,29.90
2023-04-21T08:11:12.900Z,30.10
2023-04-21T08:13:39.965Z,29.48
2023-04-21T08:16:07.179Z,30.35
2023-04-21T08:18:34.296Z,30.08
2023-04-21T08:21:02.346Z,29.58
2023-04-21T08:23:32.364Z,28.15
2023-04-21T08:25:59.739Z,27.13
2023-04-21T08:28:26.904Z,26.45
2023-04-21T08:30:54.008Z,26.00
2023-04-21T08:33:21.169Z,26.50
2023-04-21T08:36:02.531Z,24.45
2023-04-21T08:38:31.226Z,23.85
2023-04-21T08:40:59.819Z,23.17
2023-04-21T08:43:26.929Z,23.05
2023-04-21T08:45:56.731Z,22.27
2023-04-21T08:48:24.154Z,23.15
2023-04-21T08:50:51.473Z,23.33
2023-04-21T08:53:18.589Z,21.52
2023-04-21T08:55:49.274Z,21.33
2023-04-21T08:58:18.378Z,21.98
2023-04-21T09:00:45.576Z,20.00
2023-04-21T09:03:23.218Z,20.48
2023-04-21T09:05:59.633Z,20.15
2023-04-21T09:08:28.132Z,21.08
2023-04-21T09:10:55.303Z,19.70
2023-04-21T09:13:23.560Z,17.70
2023-04-21T09:15:54.383Z,18.17
2023-04-21T09:18:22.208Z,17.85
2023-04-21T09:20:50.674Z,18.00
2023-04-21T09:23:18.000Z,17.33
2023-04-21T09:25:45.498Z,18.45
2023-04-21T09:28:13.277Z,18.27
2023-04-21T09:30:41.105Z,17.80
2023-04-21T09:33:20.106Z,17.80
2023-04-21T09:35:54.857Z,18.20
2023-04-21T09:38:22.667Z,19.63
2023-04-21T09:40:57.803Z,18.30
2023-04-21T09:43:25.064Z,17.35
2023-04-21T09:45:52.188Z,18.42
2023-04-21T09:48:21.889Z,18.40
2023-04-21T09:53:19.563Z,17.13
2023-04-21T09:55:46.987Z,16.20
2023-04-21T09:58:15.425Z,16.23
2023-04-21T10:00:42.616Z,16.92
2023-04-21T10:03:11.403Z,17.08
2023-04-21T10:05:42.221Z,15.85
2023-04-21T10:08:11.514Z,21.95
2023-04-21T10:10:38.963Z,18.13
2023-04-21T10:13:06.216Z,15.95
2023-04-21T10:15:38.826Z,15.55
2023-04-21T10:18:13.831Z,15.07
2023-04-21T10:20:56.998Z,13.15
2023-04-21T10:23:43.118Z,13.38
2023-04-21T10:26:11.515Z,12.68
2023-04-21T10:28:42.386Z,12.68
2023-04-21T10:31:21.636Z,13.45
2023-04-21T10:34:13.220Z,12.63
2023-04-21T10:36:49.982Z,12.40
2023-04-21T10:39:38.497Z,13.25
2023-04-21T10:42:20.915Z,13.10
2023-04-21T10:44:57.198Z,12.48
2023-04-21T10:47:31.880Z,14.15
2023-04-21T10:49:59.328Z,14.13
2023-04-21T10:52:33.531Z,14.88
2023-04-21T10:55:00.614Z,14.07
2023-04-21T10:57:31.602Z,14.05
2023-04-21T10:59:58.703Z,17.17
2023-04-21T11:02:25.912Z,15.40
2023-04-21T11:04:53.896Z,15.07
2023-04-21T11:07:22.878Z,13.55
2023-04-21T11:09:57.139Z,13.38
2023-04-21T11:12:26.707Z,13.85
2023-04-21T11:14:53.768Z,13.50
2023-04-21T11:17:21.523Z,14.13
2023-04-21T11:19:49.027Z,12.77
2023-04-21T11:22:17.565Z,13.27
2023-04-21T11:24:45.454Z,12.82
2023-04-21T11:27:14.349Z,12.77
2023-04-21T11:29:41.670Z,12.13
2023-04-21T11:32:08.877Z,12.25
2023-04-21T11:34:38.718Z,12.13
2023-04-21T11:37:07.557Z,11.50
2023-04-21T11:39:34.567Z,12.07
2023-04-21T11:42:02.784Z,12.80
2023-04-21T11:44:33.472Z,11.55
2023-04-21T11:47:00.742Z,11.35
2023-04-21T11:49:29.452Z,12.30
2023-04-21T11:51:56.587Z,12.63
2023-04-21T11:54:24.425Z,12.07
2023-04-21T11:56:52.204Z,12.68
2023-04-21T11:59:19.774Z,12.05
2023-04-21T12:01:47.118Z,13.40
2023-04-21T12:04:15.695Z,12.23
2023-04-21T12:06:42.835Z,12.00
2023-04-21T12:09:11.026Z,12.68
2023-04-21T12:11:38.106Z,12.15
2023-04-21T12:14:05.131Z,12.05
2023-04-21T12:16:32.223Z,12.45
2023-04-21T12:18:59.394Z,12.63
2023-04-21T12:21:29.437Z,12.55
2023-04-21T12:23:56.690Z,12.63
2023-04-21T12:26:26.570Z,12.32
2023-04-21T12:28:54.025Z,11.55
2023-04-21T12:31:21.248Z,11.98
2023-04-21T12:33:48.464Z,11.48
2023-04-21T12:36:16.167Z,11.25
2023-04-21T12:38:44.562Z,11.30
2023-04-21T12:41:11.679Z,11.45
2023-04-21T12:43:38.741Z,11.43
2023-04-21T12:46:06.086Z,11.13
2023-04-21T12:48:34.698Z,11.50
2023-04-21T12:51:01.909Z,10.40
2023-04-21T12:53:31.119Z,9.63
2023-04-21T12:56:04.645Z,10.57
2023-04-21T12:58:32.469Z,10.27
2023-04-21T13:00:59.930Z,11.85
2023-04-21T13:03:27.185Z,9.93
2023-04-21T13:05:54.278Z,9.75
2023-04-21T13:08:22.688Z,10.23
2023-04-21T13:10:49.782Z,9.88
2023-04-21T13:13:17.119Z,9.55
2023-04-21T13:15:44.202Z,9.95
2023-04-21T13:18:11.398Z,8.55
2023-04-21T13:20:38.489Z,8.55
2023-04-21T13:23:05.641Z,9.55
2023-04-21T13:25:32.889Z,9.65
2023-04-21T13:28:00.082Z,9.55
2023-04-21T13:30:27.252Z,9.55
2023-04-21T13:32:54.373Z,9.85
2023-04-21T13:35:21.532Z,8.48
2023-04-21T13:37:49.981Z,8.85
2023-04-21T13:40:17.070Z,8.77
2023-04-21T13:42:44.116Z,8.57
2023-04-21T13:45:11.462Z,8.85
2023-04-21T13:47:38.729Z,8.88
2023-04-21T13:50:06.248Z,7.97
2023-04-21T13:52:34.876Z,8.30
2023-04-21T13:55:02.025Z,7.32
2023-04-21T13:57:29.102Z,8.32
2023-04-21T13:59:56.133Z,7.72
2023-04-21T14:02:25.515Z,7.93
2023-04-21T14:04:54.346Z,8.57
2023-04-21T14:07:23.056Z,8.27
2023-04-21T14:09:51.729Z,8.15
2023-04-21T14:12:19.069Z,7.80
2023-04-21T14:14:46.222Z,7.35
2023-04-21T14:17:13.376Z,6.97
2023-04-21T14:19:40.584Z,7.70
2023-04-21T14:22:07.681Z,7.82
2023-04-21T14:24:34.758Z,7.20
2023-04-21T14:27:01.987Z,6.63
2023-04-21T14:29:29.206Z,6.68
2023-04-21T14:31:58.562Z,7.32
2023-04-21T14:34:26.144Z,7.40
2023-04-21T14:36:53.455Z,7.13
2023-04-21T14:39:21.024Z,7.15
2023-04-21T14:41:48.114Z,6.85
2023-04-21T14:44:16.075Z,7.15
2023-04-21T14:46:48.060Z,7.35
2023-04-21T14:49:21.325Z,7.95
2023-04-21T14:51:49.584Z,8.30
2023-04-21T14:54:16.860Z,7.90
2023-04-21T14:56:43.934Z,7.45
2023-04-21T14:59:11.103Z,7.97
2023-04-21T15:01:38.311Z,8.30
2023-04-21T15:04:06.405Z,8.05
2023-04-21T15:06:33.634Z,7.25
2023-04-21T15:09:00.691Z,7.72
2023-04-21T15:11:27.837Z,7.50
2023-04-21T15:13:54.880Z,7.15
2023-04-21T15:16:29.515Z,7.40
2023-04-21T15:18:56.746Z,7.22
2023-04-21T15:21:23.816Z,6.97
2023-04-21T15:23:50.940Z,6.93
2023-04-21T15:26:18.062Z,7.05
2023-04-21T15:28:45.158Z,7.50
2023-04-21T15:31:12.260Z,6.57
2023-04-21T15:33:39.381Z,7.03
2023-04-21T15:36:06.616Z,7.05
2023-04-21T15:38:33.649Z,7.38
2023-04-21T15:41:01.649Z,7.90
2023-04-21T15:43:29.381Z,6.55
2023-04-21T15:45:56.454Z,7.00
2023-04-21T15:48:23.764Z,6.05
2023-04-21T15:50:50.981Z,6.78
2023-04-21T15:53:19.968Z,6.75
2023-04-21T15:55:47.655Z,6.18
2023-04-21T15:58:15.138Z,6.18
2023-04-21T16:00:42.212Z,6.70
2023-04-21T16:03:09.808Z,6.30
2023-04-21T16:05:37.156Z,5.93
2023-04-21T16:08:04.361Z,6.20
2023-04-21T16:10:31.457Z,6.90
2023-04-21T16:12:58.568Z,6.13
2023-04-21T16:15:26.268Z,5.97
2023-04-21T16:17:53.944Z,6.10
2023-04-21T16:20:21.177Z,6.50
2023-04-21T16:22:50.306Z,6.25
2023-04-21T16:25:19.070Z,5.80
2023-04-21T16:27:46.293Z,5.53
2023-04-21T16:30:13.452Z,6.72
2023-04-21T16:32:40.800Z,6.15
2023-04-21T16:35:08.355Z,6.60
2023-04-21T16:37:37.121Z,6.70
2023-04-21T16:40:06.210Z,6.70
2023-04-21T16:42:33.537Z,6.18
2023-04-21T16:45:03.458Z,7.22
2023-04-21T16:47:31.192Z,7.18
2023-04-21T16:49:58.484Z,7.10
2023-04-21T16:52:25.837Z,6.80
2023-04-21T16:54:52.946Z,7.22
2023-04-21T16:57:19.979Z,8.38
2023-04-21T16:59:47.019Z,8.57
2023-04-21T17:02:14.224Z,7.10
2023-04-21T17:04:41.523Z,7.15
2023-04-21T17:07:08.585Z,6.60
2023-04-21T17:09:35.647Z,7.85
2023-04-21T17:12:03.580Z,7.18
2023-04-21T17:14:30.914Z,7.63
2023-04-21T17:16:58.049Z,6.85
2023-04-21T17:19:25.130Z,7.10
2023-04-21T17:21:52.267Z,6.90
2023-04-21T17:24:19.372Z,7.15
2023-04-21T17:26:46.498Z,6.50
2023-04-21T17:29:14.051Z,7.63
2023-04-21T17:31:41.288Z,6.57
2023-04-21T17:34:08.491Z,6.55
2023-04-21T17:36:35.919Z,6.65
2023-04-21T17:39:03.036Z,6.85
2023-04-21T17:41:30.200Z,6.68
2023-04-21T17:43:57.283Z,6.78
2023-04-21T17:46:25.339Z,6.30
2023-04-21T17:48:52.765Z,6.85
2023-04-21T17:51:19.923Z,6.78
2023-04-21T17:53:46.970Z,6.53
2023-04-21T17:56:14.549Z,7.13
2023-04-21T17:58:42.280Z,8.32
2023-04-21T18:01:10.585Z,8.13
2023-04-21T18:03:41.148Z,15.43
2023-04-21T18:06:10.610Z,8.73
2023-04-21T18:08:38.269Z,7.63
2023-04-21T18:11:05.357Z,8.13
2023-04-21T18:13:32.578Z,8.65
2023-04-21T18:15:59.792Z,9.25
2023-04-21T18:18:26.926Z,10.02
2023-04-21T18:20:54.021Z,10.32
2023-04-21T18:23:21.667Z,8.07
2023-04-21T18:25:48.781Z,8.20
2023-04-21T18:28:15.944Z,7.15
2023-04-21T18:30:43.080Z,8.10
2023-04-21T18:33:11.540Z,7.45
2023-04-21T18:35:38.937Z,8.07
2023-04-21T18:38:08.232Z,8.25
2023-04-21T18:40:37.180Z,8.23
2023-04-21T18:43:07.526Z,7.55
2023-04-21T18:48:01.866Z,7.90
2023-04-21T18:50:29.074Z,8.27
2023-04-21T18:52:56.357Z,8.05
2023-04-21T18:55:23.369Z,9.25
2023-04-21T18:57:50.525Z,9.88
2023-04-21T19:00:17.622Z,10.05
2023-04-21T19:02:48.614Z,8.35
2023-04-21T19:05:16.341Z,10.32
2023-04-21T19:07:43.517Z,10.07
2023-04-21T19:10:10.688Z,11.50
2023-04-21T19:12:37.855Z,11.45
2023-04-21T19:15:05.099Z,12.02
2023-04-21T19:17:32.207Z,11.38
2023-04-21T19:19:59.542Z,10.73
2023-04-21T19:22:27.802Z,12.05
2023-04-21T19:24:56.030Z,14.40
2023-04-21T19:27:23.201Z,12.60
2023-04-21T19:29:50.336Z,12.52
2023-04-21T19:32:17.503Z,12.10
2023-04-21T19:34:44.684Z,12.27
2023-04-21T19:37:11.712Z,11.30
2023-04-21T19:39:38.744Z,11.40
2023-04-21T19:42:05.908Z,13.57
2023-04-21T19:44:32.918Z,14.25
2023-04-21T19:46:59.986Z,16.05
2023-04-21T19:49:27.049Z,20.88
2023-04-21T19:51:54.130Z,13.43
2023-04-21T19:54:21.224Z,11.23
2023-04-21T19:56:48.301Z,12.32
2023-04-21T19:59:15.385Z,13.13
2023-04-21T20:01:42.500Z,12.77
2023-04-21T20:04:11.823Z,12.35
2023-04-21T20:06:40.023Z,13.88
2023-04-21T20:09:07.121Z,15.25
2023-04-21T20:11:34.396Z,15.77
2023-04-21T20:14:01.448Z,16.23
2023-04-21T20:16:28.599Z,16.83
2023-04-21T20:18:55.874Z,15.07
2023-04-21T20:21:22.925Z,13.77
2023-04-21T20:23:50.001Z,15.38
2023-04-21T20:26:17.126Z,14.15
2023-04-21T20:28:44.181Z,15.05
2023-04-21T20:31:11.292Z,16.02
2023-04-21T20:33:38.404Z,16.27
2023-04-21T20:36:07.184Z,17.48
2023-04-21T20:38:34.858Z,16.88
2023-04-21T20:41:02.527Z,22.15
2023-04-21T20:43:32.930Z,18.85
2023-04-21T20:46:01.217Z,18.55
2023-04-21T20:48:28.317Z,17.45
2023-04-21T20:50:55.794Z,18.15
2023-04-21T20:53:22.973Z,16.77
2023-04-21T20:55:50.096Z,15.50
2023-04-21T20:58:17.323Z,15.85
2023-04-21T21:00:44.542Z,17.00
2023-04-21T21:03:13.801Z,16.63
2023-04-21T21:05:41.350Z,15.68
2023-04-21T21:08:08.864Z,16.58
2023-04-21T21:10:36.223Z,15.05
2023-04-21T21:13:03.623Z,16.20
2023-04-21T21:15:30.734Z,16.98
2023-04-21T21:17:57.985Z,18.27
2023-04-21T21:20:25.093Z,19.20
2023-04-21T21:22:52.165Z,19.23
2023-04-21T21:25:19.201Z,17.02
2023-04-21T21:27:46.390Z,16.20
2023-04-21T21:30:13.635Z,16.38
2023-04-21T21:32:40.713Z,16.75
2023-04-21T21:35:09.429Z,16.90
2023-04-21T21:37:37.257Z,16.13
2023-04-21T21:40:04.720Z,16.38
2023-04-21T21:42:31.774Z,17.00
2023-04-21T21:44:58.836Z,16.02
2023-04-21T21:47:26.082Z,16.58
2023-04-21T21:49:55.076Z,17.20
2023-04-21T21:52:22.307Z,18.50
2023-04-21T21:54:49.375Z,17.25
2023-04-21T21:57:16.789Z,16.45
2023-04-21T21:59:43.873Z,15.73
2023-04-21T22:02:11.059Z,15.98
2023-04-21T22:04:38.181Z,16.52
2023-04-21T22:07:05.378Z,19.73
2023-04-21T22:09:32.484Z,18.65
2023-04-21T22:11:59.622Z,22.73
2023-04-21T22:14:26.714Z,20.95
2023-04-21T22:16:53.963Z,21.00
2023-04-21T22:19:21.634Z,21.15
2023-04-21T22:21:48.690Z,20.45
2023-04-21T22:24:15.758Z,20.05
2023-04-21T22:26:43.722Z,20.02
2023-04-21T22:29:10.787Z,21.95
2023-04-21T22:31:37.978Z,22.55
2023-04-21T22:34:05.328Z,23.98
2023-04-21T22:36:32.429Z,22.73
2023-04-21T22:38:59.508Z,22.25
2023-04-21T22:41:27.590Z,21.13
2023-04-21T22:43:54.813Z,22.85
2023-04-21T22:46:21.871Z,22.98
2023-04-21T22:48:51.125Z,23.33
2023-04-21T22:51:21.073Z,21.98
2023-04-21T22:53:48.217Z,21.77
2023-04-21T22:56:15.365Z,22.13
2023-04-21T22:58:43.022Z,21.30
2023-04-21T23:01:10.139Z,20.88
2023-04-21T23:03:37.346Z,20.73
2023-04-21T23:06:04.537Z,20.38
2023-04-21T23:08:31.671Z,21.38
2023-04-21T23:10:58.797Z,22.60
2023-04-21T23:13:25.908Z,21.38
2023-04-21T23:15:52.924Z,23.77
2023-04-21T23:18:20.028Z,23.08
2023-04-21T23:20:47.085Z,23.50
2023-04-21T23:23:14.133Z,24.15
2023-04-21T23:25:41.187Z,23.50
2023-04-21T23:28:08.233Z,24.15
2023-04-21T23:30:35.438Z,23.95
2023-04-21T23:33:02.634Z,24.98
2023-04-21T23:35:29.957Z,24.60
2023-04-21T23:37:57.046Z,23.20
2023-04-21T23:40:24.122Z,24.50
2023-04-21T23:42:51.223Z,22.90
2023-04-21T23:45:18.325Z,22.27
2023-04-21T23:47:45.808Z,25.23
2023-04-21T23:50:13.009Z,24.70
2023-04-21T23:52:42.160Z,24.33
2023-04-21T23:55:10.204Z,23.58
2023-04-21T23:57:38.118Z,24.25
